Time;durP1;ratioP1;P1;durP2;ratioP2;P2;SDS_P1;SDS_P2;PMS_P1;PMS_P2;Temp;Humidity;BMP_temperature;BMP_pressure;BME280_temperature;BME280_humidity;BME280_pressure;Samples;Min_cycle;Max_cycle;Signal;HPM_P1;HPM_P2
2021/07/18 00:01:05;;;;;;;0.80;0.80;;;22.00;96.40;;;;;;5087759;28;20028;-74
2021/07/18 00:03:31;;;;;;;0.90;0.90;;;22.00;96.70;;;;;;5073367;28;20025;-75
2021/07/18 00:05:57;;;;;;;1.02;1.02;;;22.00;96.70;;;;;;5073547;28;20024;-75
2021/07/18 00:08:23;;;;;;;1.52;1.13;;;22.00;96.90;;;;;;5056969;28;20024;-75
2021/07/18 00:10:49;;;;;;;2.05;1.02;;;21.90;97.00;;;;;;5089828;28;20448;-75
2021/07/18 00:13:15;;;;;;;2.47;1.38;;;21.90;96.90;;;;;;5073283;28;20020;-75
2021/07/18 00:15:41;;;;;;;0.90;0.90;;;21.80;97.00;;;;;;5079780;28;20440;-75
2021/07/18 00:18:08;;;;;;;1.02;1.02;;;21.80;97.20;;;;;;5075298;28;20066;-75
2021/07/18 00:20:34;;;;;;;0.80;0.80;;;21.60;97.90;;;;;;5092371;28;20468;-75
2021/07/18 00:23:00;;;;;;;1.13;1.05;;;21.70;97.70;;;;;;5093305;28;20032;-75
2021/07/18 00:25:26;;;;;;;1.20;1.10;;;21.80;98.00;;;;;;5092736;28;20103;-75
2021/07/18 00:27:52;;;;;;;1.30;0.90;;;21.70;97.70;;;;;;5074803;28;20115;-75
2021/07/18 00:30:18;;;;;;;0.70;0.70;;;21.70;97.70;;;;;;5092577;28;20103;-75
2021/07/18 00:32:44;;;;;;;0.80;0.80;;;21.70;97.60;;;;;;5054971;28;20028;-75
2021/07/18 00:35:10;;;;;;;0.88;0.88;;;21.70;97.70;;;;;;5055053;28;20016;-75
2021/07/18 00:37:36;;;;;;;0.80;0.80;;;21.70;97.70;;;;;;5072788;28;20021;-75
2021/07/18 00:40:05;;;;;;;0.80;0.80;;;21.60;97.70;;;;;;5072790;28;20052;-75
2021/07/18 00:42:31;;;;;;;0.88;0.70;;;21.60;97.90;;;;;;5073981;28;20385;-75
2021/07/18 00:44:57;;;;;;;0.88;0.88;;;21.60;98.10;;;;;;5092352;28;20032;-75
2021/07/18 00:47:23;;;;;;;1.27;1.17;;;21.60;98.20;;;;;;5074994;28;20237;-74
2021/07/18 00:49:49;;;;;;;0.90;0.90;;;21.60;98.20;;;;;;5093011;28;20016;-75
2021/07/18 00:52:15;;;;;;;0.95;0.82;;;21.50;98.20;;;;;;5092384;28;20028;-75
2021/07/18 00:54:42;;;;;;;1.50;0.90;;;21.50;98.10;;;;;;5093112;28;20035;-75
2021/07/18 00:57:07;;;;;;;1.45;0.77;;;21.50;98.10;;;;;;5074697;28;20030;-76
2021/07/18 00:59:35;;;;;;;0.98;0.70;;;21.50;98.50;;;;;;5092787;28;20032;-75
2021/07/18 01:02:01;;;;;;;1.05;0.80;;;21.50;98.20;;;;;;5058703;28;20038;-75
2021/07/18 01:04:27;;;;;;;0.90;0.90;;;21.40;98.10;;;;;;5054598;28;20029;-75
2021/07/18 01:06:54;;;;;;;0.80;0.70;;;21.40;98.30;;;;;;5072494;28;20016;-75
2021/07/18 01:09:20;;;;;;;0.77;0.77;;;21.40;98.30;;;;;;5072723;28;20091;-75
2021/07/18 01:11:46;;;;;;;1.00;1.00;;;21.40;98.30;;;;;;5054548;28;20028;-75
2021/07/18 01:14:12;;;;;;;1.58;0.55;;;21.40;98.50;;;;;;5072676;28;20036;-75
2021/07/18 01:16:38;;;;;;;0.75;0.70;;;21.30;98.80;;;;;;5079385;28;20040;-75
2021/07/18 01:19:05;;;;;;;0.70;0.70;;;21.30;98.70;;;;;;5092717;28;20041;-75
2021/07/18 01:21:34;;;;;;;1.73;1.00;;;21.30;98.80;;;;;;5081861;28;20021;-75
2021/07/18 01:24:00;;;;;;;5.60;0.95;;;21.30;98.80;;;;;;5054511;28;20056;-75
2021/07/18 01:26:26;;;;;;;0.70;0.70;;;21.30;98.50;;;;;;5072403;28;20044;-75
2021/07/18 01:28:53;;;;;;;2.65;0.70;;;21.30;98.30;;;;;;5072412;28;20021;-75
2021/07/18 01:31:18;;;;;;;1.00;1.00;;;21.40;98.30;;;;;;5074109;28;20345;-75
2021/07/18 01:33:44;;;;;;;0.70;0.70;;;21.40;97.80;;;;;;5072325;28;20031;-75
2021/07/18 01:36:10;;;;;;;0.98;0.50;;;21.40;98.10;;;;;;5073036;28;20021;-75
2021/07/18 01:38:36;;;;;;;0.60;0.60;;;21.30;98.10;;;;;;5092400;28;20036;-75
2021/07/18 01:41:01;;;;;;;0.65;0.65;;;21.30;98.10;;;;;;5092230;28;20074;-75
2021/07/18 01:43:27;;;;;;;0.93;0.93;;;21.40;98.00;;;;;;5073840;28;20024;-76
2021/07/18 01:45:53;;;;;;;0.70;0.70;;;21.40;97.80;;;;;;5091916;28;20027;-75
2021/07/18 01:48:19;;;;;;;0.70;0.70;;;21.50;98.00;;;;;;5091784;28;20016;-75
2021/07/18 01:50:44;;;;;;;1.27;0.60;;;21.50;98.40;;;;;;5074336;28;20182;-75
2021/07/18 01:53:10;;;;;;;1.98;0.75;;;21.60;98.60;;;;;;5075801;28;20077;-75
2021/07/18 01:55:36;;;;;;;0.47;0.47;;;21.50;99.30;;;;;;5096216;28;20103;-75
2021/07/18 01:58:02;;;;;;;0.50;0.50;;;21.50;99.20;;;;;;5096243;28;20025;-75
2021/07/18 02:00:28;;;;;;;0.98;0.50;;;21.50;99.20;;;;;;5078082;28;20094;-75
2021/07/18 02:02:54;;;;;;;0.90;0.90;;;21.50;98.70;;;;;;5096266;28;20491;-78
2021/07/18 02:05:21;;;;;;;1.60;0.70;;;21.60;98.20;;;;;;5096324;28;20020;-78
2021/07/18 02:07:48;;;;;;;0.73;0.73;;;21.60;98.70;;;;;;5096016;28;20020;-78
2021/07/18 02:10:16;;;;;;;0.50;0.50;;;21.60;99.00;;;;;;5096086;28;20020;-78
2021/07/18 02:12:43;;;;;;;0.70;0.70;;;21.50;99.30;;;;;;5077974;28;20028;-77
2021/07/18 02:15:11;;;;;;;0.88;0.60;;;21.50;99.10;;;;;;5095872;28;20099;-78
2021/07/18 02:17:37;;;;;;;1.70;0.98;;;21.40;99.50;;;;;;5077786;28;20430;-78
2021/07/18 02:20:09;;;;;;;0.77;0.77;;;21.40;99.50;;;;;;5095784;28;20020;-78
2021/07/18 02:22:48;;;;;;;1.05;1.00;;;21.30;99.80;;;;;;5095754;28;20027;-78
2021/07/18 02:25:16;;;;;;;0.90;0.90;;;21.40;99.80;;;;;;5095828;28;20056;-78
2021/07/18 02:27:43;;;;;;;1.10;0.90;;;21.30;99.90;;;;;;5094992;28;20024;-78
2021/07/18 02:30:11;;;;;;;1.42;0.77;;;21.10;99.90;;;;;;5074318;28;20430;-78
2021/07/18 02:32:37;;;;;;;1.00;1.00;;;21.20;99.90;;;;;;5075575;28;20028;-78
2021/07/18 02:35:05;;;;;;;0.77;0.70;;;21.20;99.90;;;;;;5075459;28;20235;-78
2021/07/18 02:37:31;;;;;;;3.47;0.90;;;21.10;99.90;;;;;;5076357;28;20034;-78
2021/07/18 02:39:57;;;;;;;1.55;1.02;;;21.10;99.90;;;;;;5057889;28;20048;-78
2021/07/18 02:42:23;;;;;;;0.90;0.90;;;21.10;99.90;;;;;;5095464;28;20111;-78
2021/07/18 02:44:48;;;;;;;0.85;0.85;;;21.20;99.90;;;;;;5095497;28;20543;-78
2021/07/18 02:47:14;;;;;;;1.33;1.23;;;21.10;99.90;;;;;;5083338;28;20070;-78
2021/07/18 02:49:40;;;;;;;0.82;0.82;;;21.10;99.90;;;;;;5075190;28;20387;-78
2021/07/18 02:52:08;;;;;;;0.90;0.90;;;21.20;99.90;;;;;;5093404;28;20439;-78
2021/07/18 02:54:35;;;;;;;1.20;1.10;;;21.20;99.90;;;;;;5076754;28;20479;-78
2021/07/18 02:57:01;;;;;;;1.27;0.80;;;21.30;99.90;;;;;;5095210;28;20028;-78
2021/07/18 02:59:26;;;;;;;0.80;0.80;;;21.30;99.90;;;;;;5075978;28;20035;-78
2021/07/18 03:01:52;;;;;;;1.77;1.13;;;21.30;99.90;;;;;;5078645;28;20028;-78
2021/07/18 03:04:18;;;;;;;0.98;0.93;;;21.40;99.90;;;;;;5074133;28;20024;-78
2021/07/18 03:06:43;;;;;;;0.80;0.80;;;21.30;99.90;;;;;;5074889;28;20152;-78
2021/07/18 03:09:09;;;;;;;0.80;0.80;;;21.40;99.90;;;;;;5075442;28;20017;-78
2021/07/18 03:11:35;;;;;;;0.73;0.73;;;21.40;99.90;;;;;;5063133;28;20039;-78
2021/07/18 03:14:01;;;;;;;0.93;0.93;;;21.30;99.90;;;;;;5056646;28;20438;-78
2021/07/18 03:16:26;;;;;;;0.80;0.80;;;21.40;99.90;;;;;;5074654;28;20036;-78
2021/07/18 03:18:52;;;;;;;1.10;1.00;;;21.40;99.90;;;;;;5074538;28;20051;-78
2021/07/18 03:21:18;;;;;;;1.08;1.05;;;21.40;99.90;;;;;;5075519;28;20098;-78
2021/07/18 03:23:43;;;;;;;1.80;0.90;;;21.40;99.90;;;;;;5074491;28;20107;-78
2021/07/18 03:26:09;;;;;;;3.05;1.10;;;21.40;99.90;;;;;;5086278;28;20426;-77
2021/07/18 03:28:35;;;;;;;2.75;1.08;;;21.40;99.90;;;;;;5074280;28;20099;-78
2021/07/18 03:31:01;;;;;;;1.13;0.93;;;21.40;99.90;;;;;;5068394;28;20039;-78
2021/07/18 03:33:26;;;;;;;1.88;0.90;;;21.30;99.90;;;;;;5094647;28;20027;-78
2021/07/18 03:35:52;;;;;;;1.52;1.10;;;21.20;99.90;;;;;;5082381;28;20067;-78
2021/07/18 03:38:19;;;;;;;1.27;1.00;;;21.20;99.90;;;;;;5073945;28;20102;-78
2021/07/18 03:40:45;;;;;;;0.93;0.85;;;21.20;99.90;;;;;;5083590;28;20079;-78
2021/07/18 03:43:10;;;;;;;0.88;0.88;;;21.20;99.90;;;;;;5094368;28;20074;-78
2021/07/18 03:45:36;;;;;;;0.93;0.80;;;21.20;99.90;;;;;;5094285;28;20024;-78
2021/07/18 03:48:03;;;;;;;1.58;0.93;;;21.20;99.90;;;;;;5075311;28;20392;-78
2021/07/18 03:50:28;;;;;;;0.57;0.57;;;21.20;99.90;;;;;;5065712;28;20024;-78
2021/07/18 03:52:54;;;;;;;0.93;0.90;;;21.30;99.90;;;;;;5094132;28;20548;-78
2021/07/18 03:55:20;;;;;;;5.88;1.17;;;21.40;99.90;;;;;;5094174;28;20417;-78
2021/07/18 03:57:46;;;;;;;3.00;1.23;;;21.30;99.90;;;;;;5078433;28;20029;-78
2021/07/18 04:00:13;;;;;;;0.90;0.90;;;21.40;99.90;;;;;;5058996;28;20024;-78
2021/07/18 04:02:38;;;;;;;1.65;1.40;;;21.40;99.90;;;;;;5082325;28;20491;-78
2021/07/18 04:05:04;;;;;;;1.98;1.15;;;21.40;99.90;;;;;;5055531;28;20101;-78
2021/07/18 04:07:32;;;;;;;6.65;1.55;;;21.40;99.90;;;;;;5073338;28;20048;-78
2021/07/18 04:10:00;;;;;;;1.17;1.02;;;21.30;99.90;;;;;;5055623;28;20028;-78
2021/07/18 04:12:26;;;;;;;1.05;1.05;;;21.30;99.90;;;;;;5073527;28;20166;-78
2021/07/18 04:14:51;;;;;;;1.30;1.20;;;21.40;99.90;;;;;;5073417;28;20524;-78
2021/07/18 04:17:17;;;;;;;0.80;0.80;;;21.40;99.90;;;;;;5084997;28;20020;-78
2021/07/18 04:19:43;;;;;;;1.23;1.13;;;21.40;99.90;;;;;;5093486;28;20031;-78
2021/07/18 04:22:08;;;;;;;1.02;1.02;;;21.40;99.90;;;;;;5093447;28;20024;-78
2021/07/18 04:24:34;;;;;;;2.10;1.00;;;21.50;99.90;;;;;;5093507;28;20456;-78
2021/07/18 04:27:00;;;;;;;0.82;0.82;;;21.50;99.90;;;;;;5093629;28;20028;-78
2021/07/18 04:29:26;;;;;;;0.85;0.85;;;21.70;99.40;;;;;;5093504;28;20104;-78
2021/07/18 04:31:52;;;;;;;1.00;0.90;;;21.90;97.60;;;;;;5093511;28;20024;-78
2021/07/18 04:34:18;;;;;;;0.80;0.80;;;22.10;97.00;;;;;;5093373;28;20019;-78
2021/07/18 04:36:45;;;;;;;1.50;0.80;;;22.20;96.80;;;;;;5075209;28;20119;-78
2021/07/18 04:39:10;;;;;;;1.58;0.93;;;22.30;96.10;;;;;;5093274;28;20031;-78
2021/07/18 04:41:37;;;;;;;7.15;1.60;;;22.50;96.20;;;;;;5071685;28;20052;-78
2021/07/18 04:44:06;;;;;;;1.05;0.95;;;22.60;95.60;;;;;;5073015;28;20384;-78
2021/07/18 04:46:32;;;;;;;2.30;1.38;;;22.70;95.30;;;;;;5073035;28;20107;-78
2021/07/18 04:48:58;;;;;;;0.85;0.85;;;22.70;95.00;;;;;;5072972;28;20021;-78
2021/07/18 04:51:24;;;;;;;0.80;0.80;;;22.80;95.20;;;;;;5072946;28;20035;-78
2021/07/18 04:53:50;;;;;;;1.23;1.23;;;22.80;95.40;;;;;;5072281;28;20431;-78
2021/07/18 04:56:16;;;;;;;1.52;1.00;;;22.80;95.30;;;;;;5072921;28;20094;-78
2021/07/18 04:58:42;;;;;;;1.00;0.90;;;22.80;95.30;;;;;;5072882;28;20020;-78
2021/07/18 05:01:08;;;;;;;0.80;0.80;;;22.90;95.60;;;;;;5053515;28;20025;-78
2021/07/18 05:03:35;;;;;;;0.90;0.90;;;22.90;95.20;;;;;;5058826;28;20028;-78
2021/07/18 05:06:05;;;;;;;1.50;0.80;;;22.90;94.90;;;;;;5072858;28;20602;-78
2021/07/18 05:08:34;;;;;;;1.27;1.10;;;23.00;94.90;;;;;;5066718;28;20017;-78
2021/07/18 05:11:00;;;;;;;0.93;0.75;;;23.10;94.60;;;;;;5068784;28;20078;-78
2021/07/18 05:13:26;;;;;;;0.82;0.80;;;23.10;95.80;;;;;;5072715;28;20418;-77
2021/07/18 05:15:52;;;;;;;1.00;1.00;;;23.00;96.20;;;;;;5070785;28;20020;-78
2021/07/18 05:18:18;;;;;;;0.80;0.80;;;23.00;96.20;;;;;;5052463;28;20029;-78
2021/07/18 05:20:43;;;;;;;1.58;0.80;;;23.00;96.30;;;;;;5066020;28;20025;-78
2021/07/18 05:23:10;;;;;;;0.90;0.90;;;23.00;96.40;;;;;;5069183;28;20080;-78
2021/07/18 05:25:36;;;;;;;0.80;0.80;;;23.00;96.50;;;;;;5051355;28;20159;-78
2021/07/18 05:28:04;;;;;;;6.85;1.60;;;23.00;96.60;;;;;;5052663;28;20025;-78
2021/07/18 05:30:30;;;;;;;2.47;1.17;;;23.00;96.50;;;;;;5067631;28;20106;-78
2021/07/18 05:32:55;;;;;;;1.00;0.85;;;23.00;96.00;;;;;;5075629;28;20071;-78
2021/07/18 05:35:21;;;;;;;0.88;0.88;;;23.00;96.80;;;;;;5056587;28;20024;-78
2021/07/18 05:37:47;;;;;;;0.88;0.88;;;23.00;96.90;;;;;;5056428;28;20480;-78
2021/07/18 05:40:13;;;;;;;0.70;0.70;;;23.00;97.00;;;;;;5063449;28;20188;-78
2021/07/18 05:42:39;;;;;;;0.85;0.85;;;23.10;96.70;;;;;;5076369;28;20028;-78
2021/07/18 05:45:07;;;;;;;0.80;0.80;;;23.10;97.00;;;;;;5094388;28;20024;-78
2021/07/18 05:47:34;;;;;;;1.27;0.90;;;23.10;97.10;;;;;;5077353;28;20027;-78
2021/07/18 05:50:00;;;;;;;0.82;0.82;;;23.10;96.90;;;;;;5076249;28;20044;-78
2021/07/18 05:52:26;;;;;;;2.08;0.85;;;23.20;97.30;;;;;;5076228;28;20646;-78
2021/07/18 05:54:53;;;;;;;1.15;1.02;;;23.10;97.50;;;;;;5092219;28;20028;-78
2021/07/18 05:57:19;;;;;;;2.25;1.17;;;23.20;97.80;;;;;;5078018;28;20026;-78
2021/07/18 05:59:45;;;;;;;1.08;0.90;;;23.10;97.70;;;;;;5095761;28;20058;-78
2021/07/18 06:02:11;;;;;;;1.20;1.20;;;23.10;97.80;;;;;;5078102;28;20480;-78
2021/07/18 06:04:37;;;;;;;1.52;1.00;;;23.20;97.60;;;;;;5081869;28;20033;-78
2021/07/18 06:07:03;;;;;;;0.82;0.73;;;23.20;97.60;;;;;;5075935;28;20496;-78
2021/07/18 06:09:29;;;;;;;1.77;1.05;;;23.20;97.60;;;;;;5075922;28;20028;-78
2021/07/18 06:11:55;;;;;;;0.90;0.80;;;23.30;97.70;;;;;;5057843;28;20024;-78
2021/07/18 06:14:21;;;;;;;0.77;0.77;;;23.30;98.20;;;;;;5086953;28;20484;-78
2021/07/18 06:16:47;;;;;;;2.90;1.17;;;23.30;98.10;;;;;;5095599;28;20027;-78
2021/07/18 06:19:12;;;;;;;0.90;0.90;;;23.30;98.40;;;;;;5095897;28;20016;-78
2021/07/18 06:21:38;;;;;;;3.70;1.10;;;23.30;98.40;;;;;;5096025;28;20020;-78
2021/07/18 06:24:04;;;;;;;5.18;1.30;;;23.20;98.10;;;;;;5090443;28;20029;-78
2021/07/18 06:26:30;;;;;;;1.05;1.05;;;23.30;98.00;;;;;;5088046;28;20077;-77
2021/07/18 06:28:56;;;;;;;1.00;1.00;;;23.30;98.60;;;;;;5095686;28;20448;-78
2021/07/18 06:31:23;;;;;;;0.77;0.77;;;23.30;98.90;;;;;;5078227;28;20047;-78
2021/07/18 06:33:48;;;;;;;2.50;1.23;;;23.20;99.10;;;;;;5095766;28;20059;-78
2021/07/18 06:36:14;;;;;;;1.25;0.90;;;23.30;99.40;;;;;;5095676;28;20048;-78
2021/07/18 06:38:40;;;;;;;1.13;1.02;;;23.20;99.80;;;;;;5095300;28;20035;-78
2021/07/18 06:41:06;;;;;;;2.55;1.20;;;23.10;99.90;;;;;;5094624;28;20102;-78
2021/07/18 06:43:31;;;;;;;1.85;1.10;;;23.10;99.90;;;;;;5076145;28;20392;-78
2021/07/18 06:45:57;;;;;;;0.85;0.85;;;23.10;99.90;;;;;;5076512;28;20024;-78
2021/07/18 06:48:23;;;;;;;2.78;1.17;;;23.20;99.40;;;;;;5095419;28;20076;-78
2021/07/18 06:50:49;;;;;;;1.00;0.80;;;23.30;98.90;;;;;;5095502;28;20024;-78
2021/07/18 06:53:15;;;;;;;2.10;1.10;;;23.30;99.20;;;;;;5095394;28;20069;-78
2021/07/18 06:55:40;;;;;;;1.23;1.13;;;23.30;99.40;;;;;;5077259;28;20228;-78
2021/07/18 06:58:06;;;;;;;1.13;0.90;;;23.30;99.80;;;;;;5095148;28;20099;-78
2021/07/18 07:00:32;;;;;;;1.17;0.68;;;23.30;99.90;;;;;;5095224;28;20620;-78
2021/07/18 07:02:58;;;;;;;2.22;0.88;;;23.30;99.90;;;;;;5076951;28;20032;-78
2021/07/18 07:05:23;;;;;;;1.73;0.95;;;23.30;99.90;;;;;;5076986;28;20027;-78
2021/07/18 07:07:49;;;;;;;1.00;1.00;;;23.30;99.90;;;;;;5095118;28;20479;-78
2021/07/18 07:10:16;;;;;;;0.90;0.90;;;23.30;99.90;;;;;;5095012;28;20053;-78
2021/07/18 07:12:43;;;;;;;3.40;0.80;;;23.30;99.90;;;;;;5094904;28;20017;-78
2021/07/18 07:15:09;;;;;;;1.00;0.93;;;23.30;99.60;;;;;;5094218;28;20542;-78
2021/07/18 07:17:35;;;;;;;0.90;0.90;;;23.30;99.50;;;;;;5071067;28;20036;-78
2021/07/18 07:20:02;;;;;;;0.70;0.70;;;23.30;99.50;;;;;;5094782;28;20024;-78
2021/07/18 07:22:28;;;;;;;0.90;0.90;;;23.30;99.20;;;;;;5076511;28;20028;-78
2021/07/18 07:24:54;;;;;;;0.90;0.90;;;23.40;98.30;;;;;;5085734;28;20086;-78
2021/07/18 07:27:19;;;;;;;0.77;0.77;;;23.40;98.00;;;;;;5082419;28;20099;-78
2021/07/18 07:29:45;;;;;;;0.90;0.90;;;23.50;98.60;;;;;;5094532;28;20024;-78
2021/07/18 07:32:11;;;;;;;1.15;0.77;;;23.60;98.20;;;;;;5085473;28;20494;-78
2021/07/18 07:34:36;;;;;;;1.70;0.88;;;23.60;99.00;;;;;;5089515;28;20119;-78
2021/07/18 07:37:02;;;;;;;0.85;0.85;;;23.60;99.20;;;;;;5094337;28;20387;-78
2021/07/18 07:39:28;;;;;;;1.13;0.85;;;23.60;99.90;;;;;;5076095;28;20027;-77
2021/07/18 07:41:54;;;;;;;1.13;1.02;;;23.60;99.90;;;;;;5094395;28;20032;-78
2021/07/18 07:44:19;;;;;;;1.35;1.10;;;23.60;99.90;;;;;;5080766;28;20036;-78
2021/07/18 07:46:46;;;;;;;1.77;1.20;;;23.50;99.90;;;;;;5081983;28;20024;-78
2021/07/18 07:49:12;;;;;;;2.22;1.50;;;23.50;99.90;;;;;;5094233;28;20020;-78
2021/07/18 07:51:37;;;;;;;1.20;1.20;;;23.50;99.90;;;;;;5075871;28;20391;-78
2021/07/18 07:54:07;;;;;;;1.30;1.20;;;23.50;99.90;;;;;;5092848;28;20107;-78
2021/07/18 07:56:33;;;;;;;1.10;1.10;;;23.50;99.90;;;;;;5092942;28;20035;-78
2021/07/18 07:58:58;;;;;;;2.22;1.10;;;23.60;99.90;;;;;;5092604;28;20032;-78
2021/07/18 08:01:24;;;;;;;2.45;1.60;;;23.60;99.90;;;;;;5093704;28;20044;-78
2021/07/18 08:03:51;;;;;;;1.15;1.15;;;23.70;99.90;;;;;;5067140;28;20039;-78
2021/07/18 08:06:18;;;;;;;1.52;0.88;;;23.70;99.90;;;;;;5073707;28;20045;-78
2021/07/18 08:08:44;;;;;;;1.75;1.00;;;23.80;99.90;;;;;;5073550;28;20028;-78
2021/07/18 08:11:10;;;;;;;1.08;1.00;;;23.80;99.90;;;;;;5073557;28;20036;-77
2021/07/18 08:13:37;;;;;;;1.00;1.00;;;24.00;99.90;;;;;;5073357;28;20070;-77
2021/07/18 08:16:03;;;;;;;1.95;0.95;;;24.00;99.90;;;;;;5057486;28;20139;-78
2021/07/18 08:18:29;;;;;;;3.17;0.85;;;24.00;99.90;;;;;;5093577;28;20099;-78
2021/07/18 08:20:55;;;;;;;1.00;1.00;;;24.10;99.90;;;;;;5093575;28;20127;-78
2021/07/18 08:23:21;;;;;;;1.30;1.10;;;24.20;99.90;;;;;;5093445;28;20543;-78
2021/07/18 08:25:47;;;;;;;1.35;1.25;;;24.20;99.90;;;;;;5082417;28;20070;-78
2021/07/18 08:28:13;;;;;;;1.00;0.98;;;24.30;99.90;;;;;;5073053;28;20025;-78
2021/07/18 08:30:39;;;;;;;0.70;0.70;;;24.40;99.90;;;;;;5073207;28;20025;-78
2021/07/18 08:33:05;;;;;;;1.80;1.27;;;24.40;99.90;;;;;;5074377;28;20438;-78
2021/07/18 08:35:31;;;;;;;1.05;1.05;;;24.60;99.90;;;;;;5093513;28;20091;-78
2021/07/18 08:37:56;;;;;;;1.45;1.15;;;24.70;99.80;;;;;;5075142;28;20046;-78
2021/07/18 08:40:22;;;;;;;1.25;1.20;;;24.70;99.10;;;;;;5085195;28;20048;-78
2021/07/18 08:42:48;;;;;;;1.13;0.90;;;24.80;98.90;;;;;;5091433;28;20028;-78
2021/07/18 08:45:14;;;;;;;5.20;0.75;;;25.00;98.10;;;;;;5074220;28;20515;-78
2021/07/18 08:47:40;;;;;;;0.85;0.85;;;25.00;97.30;;;;;;5070518;28;20498;-78
2021/07/18 08:50:08;;;;;;;0.85;0.85;;;25.10;97.20;;;;;;5093171;28;20016;-78
2021/07/18 08:52:35;;;;;;;1.73;1.17;;;25.30;97.50;;;;;;5093267;28;20028;-78
2021/07/18 08:55:02;;;;;;;0.82;0.82;;;25.30;98.10;;;;;;5093056;28;20487;-77
2021/07/18 08:57:28;;;;;;;6.63;1.08;;;25.40;98.80;;;;;;5092979;28;20024;-77
2021/07/18 08:59:53;;;;;;;1.10;1.10;;;25.40;98.90;;;;;;5092785;28;20048;-77
2021/07/18 09:02:19;;;;;;;1.05;1.05;;;25.50;98.90;;;;;;5074326;28;20028;-77
2021/07/18 09:04:45;;;;;;;1.73;0.82;;;25.50;99.40;;;;;;5092917;28;20020;-77
2021/07/18 09:07:14;;;;;;;0.95;0.95;;;25.50;99.70;;;;;;5092968;28;20024;-78
2021/07/18 09:09:40;;;;;;;1.08;0.98;;;25.60;99.80;;;;;;5074796;28;20434;-78
2021/07/18 09:12:08;;;;;;;1.45;1.35;;;25.60;99.90;;;;;;5092956;28;20016;-78
2021/07/18 09:14:48;;;;;;;0.95;0.95;;;25.70;99.90;;;;;;5074888;28;20043;-78
2021/07/18 09:17:17;;;;;;;1.05;1.00;;;25.80;99.60;;;;;;5080968;28;20024;-74
2021/07/18 09:22:29;;;;;;;3.10;1.55;;;25.80;97.30;;;;;;5072676;28;20093;-75
2021/07/18 09:24:59;;;;;;;1.13;1.13;;;25.90;98.50;;;;;;5055094;28;20029;-77
2021/07/18 09:27:28;;;;;;;2.08;1.75;;;26.00;98.80;;;;;;5072540;28;20025;-77
2021/07/18 09:29:56;;;;;;;1.10;1.00;;;26.20;96.50;;;;;;5072616;28;20024;-77
2021/07/18 09:32:25;;;;;;;0.90;0.90;;;26.40;99.10;;;;;;5054685;28;20035;-77
2021/07/18 09:35:04;;;;;;;0.90;0.90;;;26.50;96.30;;;;;;5072347;28;20032;-77
2021/07/18 09:37:36;;;;;;;1.23;1.02;;;26.50;95.80;;;;;;5054267;28;20463;-77
2021/07/18 09:40:07;;;;;;;;;;;26.60;94.10;;;;;;5051374;28;20041;-77
2021/07/18 09:42:42;;;;;;;1.00;1.00;;;26.60;94.00;;;;;;5052407;28;19940;-77
2021/07/18 09:45:19;;;;;;;1.40;1.27;;;26.60;94.50;;;;;;5051157;28;20029;-77
2021/07/18 09:48:08;;;;;;;2.45;1.75;;;26.60;93.30;;;;;;5052270;28;20104;-77
2021/07/18 09:50:44;;;;;;;1.50;1.40;;;26.60;93.80;;;;;;5052779;28;20074;-77
2021/07/18 09:53:17;;;;;;;3.88;2.17;;;26.50;93.90;;;;;;5050993;28;20021;-77
2021/07/18 09:55:57;;;;;;;2.13;1.13;;;26.60;93.60;;;;;;5047653;28;20021;-77
2021/07/18 09:58:24;;;;;;;1.30;1.00;;;26.60;95.00;;;;;;5032377;28;20040;-77
2021/07/18 10:00:50;;;;;;;1.40;0.98;;;26.60;95.80;;;;;;5032432;28;20022;-77
2021/07/18 10:03:22;;;;;;;1.13;0.95;;;26.60;96.40;;;;;;5042379;28;20027;-77
2021/07/18 10:06:12;;;;;;;1.13;1.00;;;26.60;97.10;;;;;;5051539;28;20033;-77
2021/07/18 10:08:45;;;;;;;0.93;0.90;;;26.50;96.80;;;;;;5044448;28;20036;-77
2021/07/18 10:11:13;;;;;;;1.35;0.70;;;26.50;97.20;;;;;;5050000;28;20032;-77
2021/07/18 10:13:41;;;;;;;2.05;1.30;;;26.50;96.90;;;;;;5051871;28;20113;-77
2021/07/18 10:16:08;;;;;;;0.80;0.80;;;26.50;97.00;;;;;;5049984;28;20025;-77
2021/07/18 10:18:39;;;;;;;2.05;0.90;;;26.50;96.50;;;;;;5054291;28;20128;-77
2021/07/18 10:21:07;;;;;;;0.70;0.70;;;26.60;96.60;;;;;;5054736;28;20033;-77
2021/07/18 10:23:39;;;;;;;1.35;1.13;;;26.60;96.70;;;;;;5055846;28;20037;-77
2021/07/18 10:26:06;;;;;;;1.17;1.15;;;26.50;96.60;;;;;;5055960;28;20044;-77
2021/07/18 10:28:32;;;;;;;1.60;1.50;;;26.50;96.20;;;;;;5055815;28;20482;-77
2021/07/18 10:31:06;;;;;;;1.23;1.13;;;26.50;96.20;;;;;;5054520;28;20021;-77
2021/07/18 10:33:33;;;;;;;1.70;1.13;;;26.60;95.90;;;;;;5055840;28;20032;-77
2021/07/18 10:36:01;;;;;;;1.40;1.30;;;26.60;96.40;;;;;;5054284;28;20021;-77
2021/07/18 10:38:27;;;;;;;1.27;1.17;;;26.70;98.70;;;;;;5055530;28;20382;-76
2021/07/18 10:40:55;;;;;;;1.20;1.10;;;26.80;99.00;;;;;;5066757;28;20055;-76
2021/07/18 10:43:48;;;;;;;2.08;0.88;;;26.80;98.60;;;;;;5075033;28;20032;-76
2021/07/18 10:46:36;;;;;;;1.27;1.17;;;26.90;97.20;;;;;;5072298;28;20017;-76
2021/07/18 10:49:02;;;;;;;1.20;1.17;;;27.00;97.50;;;;;;5054700;28;21840;-77
2021/07/18 10:51:38;;;;;;;0.90;0.90;;;27.10;96.70;;;;;;5066281;28;20052;-76
2021/07/18 10:54:19;;;;;;;2.58;1.10;;;27.20;95.80;;;;;;5074659;28;20456;-77
2021/07/18 10:56:49;;;;;;;1.00;1.00;;;27.30;94.90;;;;;;5073390;28;20029;-77
2021/07/18 10:59:37;;;;;;;4.97;1.00;;;27.40;92.40;;;;;;5073494;28;20040;-77
2021/07/18 11:02:04;;;;;;;0.95;0.95;;;27.40;89.30;;;;;;5074945;28;20019;-77
2021/07/18 11:04:40;;;;;;;0.95;0.95;;;27.40;91.00;;;;;;5074895;28;20032;-77
2021/07/18 11:07:21;;;;;;;2.85;0.70;;;27.50;92.60;;;;;;5072083;28;20103;-77
2021/07/18 11:09:51;;;;;;;1.10;1.00;;;27.70;91.70;;;;;;5070356;28;20024;-76
2021/07/18 11:12:32;;;;;;;1.13;0.90;;;27.80;90.10;;;;;;5072637;28;20056;-77
2021/07/18 11:15:17;;;;;;;2.72;1.15;;;27.90;90.80;;;;;;5071953;28;20532;-77
2021/07/18 11:18:05;;;;;;;2.40;1.10;;;27.90;90.30;;;;;;5072309;28;20446;-77
2021/07/18 11:20:43;;;;;;;2.03;1.20;;;28.00;91.20;;;;;;5067390;28;20479;-76
2021/07/18 11:23:11;;;;;;;1.00;1.00;;;28.10;89.80;;;;;;5072701;28;20033;-76
2021/07/18 11:25:48;;;;;;;1.15;1.13;;;28.10;87.00;;;;;;5074015;28;20028;-77
2021/07/18 11:28:49;;;;;;;2.70;1.05;;;28.10;87.60;;;;;;5072820;28;20024;-77
2021/07/18 11:31:24;;;;;;;1.38;1.27;;;28.20;87.00;;;;;;5072220;28;20036;-77
2021/07/18 11:34:08;;;;;;;2.38;1.10;;;28.10;86.40;;;;;;5069698;28;20032;-77
2021/07/18 11:36:34;;;;;;;1.02;1.00;;;28.10;85.50;;;;;;5074052;28;20025;-76
2021/07/18 11:39:11;;;;;;;1.30;1.20;;;28.30;81.80;;;;;;5074107;28;20055;-77
2021/07/18 11:41:37;;;;;;;1.15;1.05;;;28.40;81.80;;;;;;5081673;28;20793;-77
2021/07/18 11:44:04;;;;;;;1.45;1.35;;;28.50;84.70;;;;;;5075840;28;20495;-77
2021/07/18 11:46:32;;;;;;;1.60;1.50;;;28.60;85.80;;;;;;5093793;28;20062;-77
2021/07/18 11:49:03;;;;;;;1.35;0.93;;;28.90;80.70;;;;;;5094050;28;20099;-77
2021/07/18 11:51:29;;;;;;;1.05;1.05;;;29.00;78.30;;;;;;5093148;28;20486;-77
2021/07/18 11:53:58;;;;;;;1.40;1.30;;;29.10;78.40;;;;;;5084133;28;20406;-77
2021/07/18 11:56:29;;;;;;;1.20;1.20;;;29.20;78.20;;;;;;5093680;28;20032;-77
2021/07/18 11:59:14;;;;;;;1.42;1.33;;;29.20;77.30;;;;;;5093838;28;20012;-76
2021/07/18 12:01:44;;;;;;;1.08;0.95;;;29.20;79.50;;;;;;5077993;28;20024;-76
2021/07/18 12:04:24;;;;;;;1.50;1.40;;;29.20;80.40;;;;;;5073522;28;20025;-76
2021/07/18 12:06:59;;;;;;;1.52;1.42;;;29.10;80.70;;;;;;5075447;28;20024;-76
2021/07/18 12:09:27;;;;;;;1.25;1.15;;;29.10;80.70;;;;;;5093748;28;20099;-76
2021/07/18 12:11:54;;;;;;;3.05;1.30;;;29.00;78.50;;;;;;5093652;28;20024;-77
2021/07/18 12:14:21;;;;;;;1.20;1.20;;;29.10;82.90;;;;;;5093626;28;20020;-76
2021/07/18 12:16:51;;;;;;;1.02;1.02;;;29.20;77.60;;;;;;5075528;28;20383;-77
2021/07/18 12:19:16;;;;;;;2.88;1.00;;;29.40;78.60;;;;;;5093551;28;20028;-77
2021/07/18 12:21:48;;;;;;;1.00;0.85;;;29.60;78.10;;;;;;5093455;28;20033;-77
2021/07/18 12:24:33;;;;;;;2.30;1.27;;;29.80;75.40;;;;;;5093327;28;20027;-76
2021/07/18 12:26:59;;;;;;;0.75;0.75;;;30.10;78.30;;;;;;5073256;28;20016;-76
2021/07/18 12:29:26;;;;;;;0.90;0.90;;;30.20;76.50;;;;;;5093227;28;20020;-76
2021/07/18 12:31:52;;;;;;;1.92;1.08;;;30.20;72.80;;;;;;5093061;28;20031;-77
2021/07/18 12:34:24;;;;;;;1.10;1.00;;;30.20;76.20;;;;;;5092479;28;20024;-76
2021/07/18 12:37:10;;;;;;;1.05;1.05;;;30.20;76.10;;;;;;5074573;28;20024;-77
2021/07/18 12:39:40;;;;;;;1.00;1.00;;;30.10;73.00;;;;;;5074919;28;20035;-77
2021/07/18 12:42:11;;;;;;;1.08;0.98;;;30.00;70.90;;;;;;5091877;28;20463;-77
2021/07/18 12:44:46;;;;;;;1.17;1.17;;;29.90;70.10;;;;;;5081092;28;20024;-77
2021/07/18 12:47:31;;;;;;;1.08;1.00;;;29.80;72.60;;;;;;5093396;28;20035;-77
2021/07/18 12:50:14;;;;;;;1.10;1.10;;;29.70;72.30;;;;;;5093014;28;20020;-77
2021/07/18 12:52:58;;;;;;;2.53;1.10;;;29.50;72.50;;;;;;5093056;28;20050;-77
2021/07/18 12:55:30;;;;;;;0.82;0.82;;;29.40;73.20;;;;;;5093235;28;20472;-77